Página principal
METAR-TAF:

METAR-TAF

Aeroportos :

Málaga, Espanha

latitude: 36-40N, longitude: 004-29W, altura: 16 m

Observação actual do tempo

O boletim foi feito há 44 minutos, às 13:30 UTC
Vento 8 kt de sudeste, variando entre este e sul
Temperatura 27°C
Humidade 70%
Pressão 1021 hPa
Visibilidade 10 km ou mais
Poucas nuvensa uma altura de 1800 ft

METAR: LEMG 071330Z 14008KT 090V180 9999 FEW018 27/21 Q1021 NOSIG

Hora: 16:14 (14:14 UTC)

Previsão

O boletim foi feito há 3 horas e 14 minutos, às 11:00 UTC
Previsão válida de 07 às 12 UTC a 08 às 12 UTC
Vento 7 kt de sudeste
Visibilidade 10 km ou mais
Nuvens dispersasa uma altura de 2000 ft
Tornando-se
de 07 às 21 UTC a 07 às 24 UTC
Vento 2 kt com direcção variável
Tornando-se
de 08 às 01 UTC a 08 às 03 UTC
Vento 6 kt de oeste
Tornando-se
de 08 às 07 UTC a 08 às 09 UTC
Vento 8 kt de sudeste

TAF: LEMG 071100Z 0712/0812 13007KT 9999 SCT020 TX28/0713Z TN20/0805Z BECMG 0721/0724 VRB02KT BECMG 0801/0803 28006KT BECMG 0807/0809 13008KT

Observações e previsões do tempo de mais de 4000 aeroportos (mensagens METAR e TAF).

As estações disponíveis são os pontos amarelos e vermelhos sobre o mapa.

Mova o rato sobre o mapa para ver o nome da estação.

Depois clique no ponto para visualizar as observações e previsões meteorológicas.

Para alterar o mapa : clique nos botões verdes com uma cruz preta para aumentar o zoom; no botão verde com uma pitada de zoom; ou nas setas verdes para mapas adjacentes.


METAR-TAF: